CheckWX is a tool to help pilots better visualize weather data.  It is not intended as a substitute for an official pre-flight weather briefing.

05:39:16 UTC

EGSS TAF
London Stansted Airport
London, United Kingdom
TAF EGSS 302301Z 3100/0106 03010KT 9999 SCT030 PROB30 TEMPO 3100/3103 8000 -SHRA BECMG 3121/3124 VRB04KT PROB30 0101/0106 8000

Mar-31@
00:00 UTC

Mar-31 @ 00:00 UTC

Mar-31@
21:00 UTC

Mar-31 @ 21:00 UTC

TAF EGSS 302301Z 3100/0106 03010KT 9999 SCT030
Wind
  • 030° at 10 KTS
Cloud Levels
  • Scattered at 3,000' AGL

Mar-31@
00:00 UTC

Mar-31 @ 00:00 UTC

Mar-31@
03:00 UTC

Mar-31 @ 03:00 UTC

PROB30 TEMPO 3100/3103 8000 -SHRA

Expired

Conditions
Light Showers, Rain
Cloud Levels

Mar-31@
21:00 UTC

Mar-31 @ 21:00 UTC

Apr-1@
06:00 UTC

Apr-1 @ 06:00 UTC

BECMG 3121/3124 VRB04KT

Becoming

Becoming Conditions expected by Wed, Apr 1, 2020 @ 00:00 UTC

Wind
  • Variable at 4 KTS
Cloud Levels
  • Scattered at 3,000' AGL

Apr-1@
01:00 UTC

Apr-1 @ 01:00 UTC

Apr-1@
06:00 UTC

Apr-1 @ 06:00 UTC

PROB30 0101/0106 8000

Probable - 30% Likelihood

Probable - 30% Likelihood during this time.

Cloud Levels